Promised Land, New York
Current Conditions -  °F | °C
As of 4:56 AM on Thursday 18 Dec 2014 (Local Time) from KGON Reporting Station
Overcast Overcast  
Wind Chill: -2°   Ceiling: 7500
Heat Index:   Visibility: 9mi
Dew Point: -1°   Wind: 15mph
Humidity: 76%   Direction: 270°W
Pressure: 29.8"   Gusts: 22mph
Location:  40.9764°N, 72.1316°W
Report Text: KGON 180956Z AUTO 27013G19KT 9SM OVC075 03/M01 A2980 RMK AO2 RAB03E15 SLP092 P0000 T00331006
Loading
Personal Weather Stations






























Interactive Weather Map New forecast layout! Learn more

10-Day Weather Forecast

Advertisements
Track Severe Weather on mobile